Hlavní strana
METAR-TAF:

METAR-TAF

Letiště :

N'Djamena, Čad

zeměpisná šířka: 12-08N, zeměpisná délka: 015-02E, výška: 295 m

Aktuální stav počasí

Zpráva byla vytvořena před 48 minutami, v 14:00 UTC
Východoseverovýchodní vítr 11 kt, proměnlivý mezi východoseverovýchodním a jihovýchodním
Teplota 44°C
Vlhkost vzduchu 13%
Tlak 1004 hPa
Viditelnost: 8000 m
Polojasno ve výšce 4000 ft

METAR: FTTJ 241400Z 07011KT 070V140 8000 SCT040 44/10 Q1004 NOSIG

Čas: 15:48 (14:48 UTC)

Předpověď počasí

Zpráva byla vytvořena před 3 hodinami a 48 minutami, v 11:00 UTC
Předpověď platná od 24 v 12 UTC do 25 v 18 UTC
vítr z různých směrů 7 kt
Viditelnost 10 km a více
Skoro jasno ve výšce 4000 ft
Dočasný
od 24 v 15 UTC do 24 v 21 UTC
bouřka

TAF: FTTJ 241100Z 2412/2518 VRB07KT 9999 FEW040 PRO30 TEMPO 2415/2421 TS

Stav a předpovědi počasí z více než 4 000 letišť (zprávy METAR a TAF).

Červené a žluté tečky na mapě představují dostupné meteorologické stanice.

Když kurzor umístíte na tečku, zobrazí se název stanice.

Pak kliknutím zobrazíte stav a předpověď počasí.

Chcete-li změnit mapu, kliknutím na zelené tlačítko se znaménkem +mapu přiblížíte, kliknutím na zelené tlačítko se znaménkem – mapu oddálíte a kliknutím na zelené šipky přejdete na sousední mapy.


METAR-TAF: